Time;durP1;ratioP1;P1;durP2;ratioP2;P2;SDS_P1;SDS_P2;PMS_P1;PMS_P2;Temp;Humidity;BMP_temperature;BMP_pressure;BME280_temperature;BME280_humidity;BME280_pressure;Samples;Min_cycle;Max_cycle;Signal;HPM_P1;HPM_P2
2022/08/04 00:00:00;;;;;;;8.73;8.00;;;24.10;1.00;;;;;;6368049;22;20400;-82
2022/08/04 00:02:32;;;;;;;9.13;8.33;;;24.10;1.00;;;;;;6368821;22;20404;-82
2022/08/04 00:05:04;;;;;;;9.20;8.40;;;24.10;1.00;;;;;;6353661;22;20378;-83
2022/08/04 00:07:39;;;;;;;8.77;7.97;;;24.10;1.00;;;;;;6369166;22;20412;-84
2022/08/04 00:10:08;;;;;;;8.90;8.13;;;24.10;1.00;;;;;;6364599;22;21104;-82
2022/08/04 00:12:38;;;;;;;8.03;7.37;;;24.00;1.00;;;;;;6351893;22;20386;-84
2022/08/04 00:15:10;;;;;;;8.73;7.93;;;24.00;1.00;;;;;;6352249;22;20410;-83
2022/08/04 00:17:41;;;;;;;9.23;7.73;;;24.00;1.00;;;;;;6370042;22;20404;-83
2022/08/04 00:20:16;;;;;;;8.13;7.43;;;24.00;1.00;;;;;;6368974;22;20393;-84
2022/08/04 00:22:46;;;;;;;8.47;7.77;;;23.90;1.00;;;;;;6368152;22;20381;-83
2022/08/04 00:25:22;;;;;;;8.60;7.80;;;23.90;1.00;;;;;;6352068;22;20389;-83
2022/08/04 00:27:49;;;;;;;8.07;7.17;;;23.90;1.00;;;;;;6368778;22;20421;-83
2022/08/04 00:30:16;;;;;;;7.93;7.13;;;23.90;1.00;;;;;;6367076;22;20404;-83
2022/08/04 00:32:45;;;;;;;8.20;7.60;;;23.90;1.00;;;;;;6369416;22;20393;-81
2022/08/04 00:35:17;;;;;;;7.87;7.10;;;23.90;1.00;;;;;;6348817;22;20437;-78
2022/08/04 00:37:48;;;;;;;8.60;7.80;;;23.90;1.00;;;;;;6347508;22;20369;-81
2022/08/04 00:40:30;;;;;;;7.77;7.07;;;23.90;1.00;;;;;;6350585;22;20416;-82
2022/08/04 00:43:14;;;;;;;7.47;6.77;;;23.90;1.00;;;;;;6361477;22;20421;-82
2022/08/04 00:46:16;;;;;;;7.47;6.80;;;23.90;1.00;;;;;;6369720;22;20411;-82
2022/08/04 00:49:01;;;;;;;7.87;7.17;;;23.90;1.00;;;;;;6356290;22;20381;-81
2022/08/04 00:51:46;;;;;;;8.10;7.33;;;23.80;1.00;;;;;;6363212;22;20429;-81
2022/08/04 00:54:35;;;;;;;7.60;6.90;;;23.90;1.00;;;;;;6337020;22;20378;-79
2022/08/04 00:57:48;;;;;;;7.97;7.17;;;23.80;1.00;;;;;;6351746;22;20392;-82
2022/08/04 01:00:19;;;;;;;8.00;7.30;;;23.80;1.00;;;;;;6366289;22;20396;-84
2022/08/04 01:03:01;;;;;;;8.47;7.77;;;23.80;1.00;;;;;;6367206;22;20418;-84
2022/08/04 01:05:41;;;;;;;7.20;6.27;;;23.90;1.00;;;;;;6365302;22;20381;-83
2022/08/04 01:08:36;;;;;;;7.50;6.80;;;23.80;1.00;;;;;;6348670;22;20389;-78
2022/08/04 01:11:15;;;;;;;7.90;7.20;;;23.90;1.00;;;;;;6343081;22;20385;-80
2022/08/04 01:14:14;;;;;;;7.70;6.90;;;23.90;1.00;;;;;;6359817;22;20419;-82
2022/08/04 01:16:56;;;;;;;8.23;7.53;;;23.80;1.00;;;;;;6346184;22;20417;-81
2022/08/04 01:19:55;;;;;;;7.87;7.27;;;23.70;1.00;;;;;;6355389;22;20877;-79
2022/08/04 01:22:55;;;;;;;7.63;6.93;;;23.70;1.00;;;;;;6347848;22;20401;-82
2022/08/04 01:25:48;;;;;;;8.00;7.20;;;23.60;1.00;;;;;;6357783;22;20443;-81
2022/08/04 01:28:35;;;;;;;6.80;6.20;;;23.50;1.00;;;;;;6353721;22;20421;-79
2022/08/04 01:31:17;;;;;;;7.80;7.10;;;23.40;1.00;;;;;;6363621;22;20500;-80
2022/08/04 01:33:46;;;;;;;8.57;7.30;;;23.30;1.00;;;;;;6337455;22;21188;-80
2022/08/04 01:36:16;;;;;;;8.93;7.07;;;23.30;1.00;;;;;;6333933;22;20435;-83
2022/08/04 01:38:44;;;;;;;10.77;7.70;;;23.30;1.00;;;;;;6291682;22;20481;-77
2022/08/04 01:41:19;;;;;;;8.17;7.03;;;23.30;1.00;;;;;;6298018;22;20429;-78
2022/08/04 01:43:47;;;;;;;7.23;6.43;;;23.30;1.00;;;;;;6328881;22;20386;-81
2022/08/04 01:46:17;;;;;;;8.50;7.27;;;23.30;1.00;;;;;;6306785;22;20416;-84
2022/08/04 01:48:46;;;;;;;9.47;7.73;;;23.30;1.00;;;;;;6335253;22;20387;-81
2022/08/04 01:51:18;;;;;;;7.23;6.70;;;23.30;1.00;;;;;;6336388;22;20436;-83
2022/08/04 01:53:45;;;;;;;7.83;7.13;;;23.20;1.00;;;;;;6309901;22;20402;-82
2022/08/04 01:56:17;;;;;;;7.00;6.40;;;23.20;1.00;;;;;;6312830;22;20428;-79
2022/08/04 01:58:44;;;;;;;7.10;6.50;;;23.20;1.00;;;;;;6319483;22;20386;-81
2022/08/04 02:01:20;;;;;;;7.87;7.07;;;23.10;1.00;;;;;;6334568;22;20394;-78
2022/08/04 02:03:49;;;;;;;8.00;7.30;;;23.10;1.00;;;;;;6324999;22;20378;-81
2022/08/04 02:06:33;;;;;;;10.67;7.03;;;23.00;1.00;;;;;;6316440;22;20432;-81
2022/08/04 02:09:16;;;;;;;7.97;7.07;;;23.00;1.00;;;;;;6307746;22;20421;-79
2022/08/04 02:11:56;;;;;;;7.47;6.77;;;23.00;1.00;;;;;;6331961;22;20433;-82
2022/08/04 02:14:44;;;;;;;7.83;6.73;;;23.00;1.00;;;;;;6329561;22;20393;-77
2022/08/04 02:17:25;;;;;;;7.67;7.00;;;22.90;1.00;;;;;;6288445;22;20490;-82
2022/08/04 02:20:08;;;;;;;7.50;6.83;;;22.80;1.00;;;;;;6327694;22;20414;-82
2022/08/04 02:22:45;;;;;;;8.43;7.40;;;22.80;1.00;;;;;;6309949;22;20390;-83
2022/08/04 02:25:24;;;;;;;7.60;7.00;;;22.70;1.00;;;;;;6304759;22;20421;-83
2022/08/04 02:28:02;;;;;;;7.83;7.10;;;22.70;1.00;;;;;;6335215;22;20433;-80
2022/08/04 02:30:52;;;;;;;8.57;7.47;;;22.70;1.00;;;;;;6305664;22;20406;-80
2022/08/04 02:33:36;;;;;;;7.53;6.80;;;22.70;1.00;;;;;;6280485;22;20418;-78
2022/08/04 02:36:09;;;;;;;14.00;8.27;;;22.60;1.00;;;;;;6279103;22;20379;-78
2022/08/04 02:38:55;;;;;;;14.67;13.33;;;22.60;1.00;;;;;;6318367;22;20401;-77
2022/08/04 02:41:28;;;;;;;13.10;12.10;;;22.60;1.00;;;;;;6281299;22;20409;-83
2022/08/04 02:44:04;;;;;;;12.90;11.80;;;22.60;1.00;;;;;;6334700;22;20425;-80
2022/08/04 02:46:35;;;;;;;9.47;8.47;;;22.60;1.00;;;;;;6323121;22;20909;-78
2022/08/04 02:49:16;;;;;;;9.97;7.83;;;22.50;1.00;;;;;;6322346;22;20426;-81
2022/08/04 02:51:52;;;;;;;6.63;6.13;;;22.50;1.00;;;;;;6324869;22;20370;-78
2022/08/04 02:54:25;;;;;;;8.60;7.77;;;22.50;1.00;;;;;;6323811;22;21229;-78
2022/08/04 02:56:57;;;;;;;8.00;7.40;;;22.40;1.00;;;;;;6317810;22;20418;-78
2022/08/04 02:59:26;;;;;;;7.63;7.10;;;22.30;1.00;;;;;;6317032;22;20422;-78
2022/08/04 03:01:58;;;;;;;7.93;7.33;;;22.30;1.00;;;;;;6313334;22;20472;-78
2022/08/04 03:04:51;;;;;;;10.70;8.73;;;22.30;1.00;;;;;;6317222;22;20502;-78
2022/08/04 03:07:58;;;;;;;9.17;8.47;;;22.30;1.00;;;;;;6315284;22;20438;-78
2022/08/04 03:11:05;;;;;;;7.70;7.10;;;22.20;1.00;;;;;;6312505;22;20548;-79
2022/08/04 03:13:58;;;;;;;7.60;6.90;;;22.10;1.00;;;;;;6327820;22;20484;-77
2022/08/04 03:16:43;;;;;;;7.63;7.03;;;22.10;1.00;;;;;;6271183;22;20565;-78
2022/08/04 03:19:39;;;;;;;7.70;7.10;;;22.10;1.00;;;;;;6317247;22;20414;-83
2022/08/04 03:22:44;;;;;;;7.53;6.83;;;22.00;1.00;;;;;;6260199;22;20433;-82
2022/08/04 03:26:25;;;;;;;8.70;7.90;;;22.00;1.00;;;;;;6296588;22;20386;-81
2022/08/04 03:29:35;;;;;;;8.97;8.07;;;21.90;1.00;;;;;;6285660;22;20447;-83
2022/08/04 03:32:44;;;;;;;8.40;7.80;;;21.90;1.00;;;;;;6316634;22;20425;-82
2022/08/04 03:35:41;;;;;;;9.07;8.27;;;21.80;1.00;;;;;;6261308;22;20426;-81
2022/08/04 03:38:51;;;;;;;8.70;7.90;;;21.90;1.00;;;;;;6252341;22;20420;-79
2022/08/04 03:41:46;;;;;;;11.90;8.97;;;21.80;1.00;;;;;;6234885;22;20429;-79
2022/08/04 03:45:05;;;;;;;12.67;8.30;;;21.80;1.00;;;;;;6251139;22;20424;-78
2022/08/04 03:47:58;;;;;;;11.87;10.67;;;21.80;1.00;;;;;;6159128;23;20434;-82
2022/08/04 03:54:36;;;;;;;18.47;10.30;;;21.80;1.00;;;;;;6261375;22;20447;-83
2022/08/04 03:57:43;;;;;;;19.30;9.53;;;21.80;1.00;;;;;;6228134;22;20419;-84
2022/08/04 04:00:18;;;;;;;10.23;9.23;;;21.80;1.00;;;;;;6251958;22;21220;-84
2022/08/04 04:03:37;;;;;;;12.47;9.47;;;21.70;1.00;;;;;;6260270;22;20392;-82
2022/08/04 04:06:26;;;;;;;10.97;10.07;;;21.70;1.00;;;;;;6248466;22;20445;-78
2022/08/04 04:09:21;;;;;;;8.13;7.53;;;21.70;1.00;;;;;;6257986;22;20420;-82
2022/08/04 04:12:16;;;;;;;9.23;8.43;;;21.70;1.00;;;;;;6255211;22;20432;-79
2022/08/04 04:14:59;;;;;;;8.90;8.20;;;21.70;1.00;;;;;;6255867;22;20428;-79
2022/08/04 04:17:45;;;;;;;9.67;8.60;;;21.60;1.00;;;;;;6254925;22;20506;-82
2022/08/04 04:20:44;;;;;;;9.23;8.53;;;21.60;1.00;;;;;;6252926;22;20380;-79
2022/08/04 04:23:28;;;;;;;15.17;13.90;;;21.60;1.00;;;;;;6244251;22;21010;-84
2022/08/04 04:26:07;;;;;;;10.37;9.37;;;21.60;1.00;;;;;;6255548;22;20408;-82
2022/08/04 04:28:57;;;;;;;10.90;9.43;;;21.60;1.00;;;;;;6256474;22;20380;-78
2022/08/04 04:31:56;;;;;;;10.93;9.50;;;21.70;1.00;;;;;;6254324;22;20458;-83
2022/08/04 04:34:47;;;;;;;9.70;8.70;;;21.60;1.00;;;;;;6253395;22;20435;-79
2022/08/04 04:37:55;;;;;;;9.77;9.00;;;21.70;1.00;;;;;;6250474;22;20490;-79
2022/08/04 04:40:41;;;;;;;13.37;10.17;;;21.70;1.00;;;;;;6316905;22;20569;-77
2022/08/04 04:43:35;;;;;;;10.70;9.70;;;21.70;1.00;;;;;;6312998;22;20425;-78
2022/08/04 04:46:12;;;;;;;11.30;10.37;;;21.70;1.00;;;;;;6310578;22;20457;-78
2022/08/04 04:48:53;;;;;;;11.07;10.10;;;21.80;1.00;;;;;;6319168;22;20476;-84
2022/08/04 04:51:30;;;;;;;11.13;10.23;;;21.80;1.00;;;;;;6273528;22;20434;-78
2022/08/04 04:54:08;;;;;;;11.10;10.20;;;21.90;1.00;;;;;;6315722;22;20446;-83
2022/08/04 04:56:45;;;;;;;11.03;10.23;;;21.90;1.00;;;;;;6318701;22;20914;-78
2022/08/04 04:59:17;;;;;;;11.90;10.90;;;21.90;1.00;;;;;;6315630;22;20947;-78
2022/08/04 05:02:26;;;;;;;11.90;10.70;;;22.00;1.00;;;;;;6319685;22;20441;-82
2022/08/04 05:05:21;;;;;;;12.33;11.23;;;22.00;1.00;;;;;;6202162;22;20375;-83
2022/08/04 05:08:15;;;;;;;12.03;11.03;;;22.00;1.00;;;;;;6307355;22;20503;-78
2022/08/04 05:10:59;;;;;;;11.63;10.60;;;22.00;1.00;;;;;;6260508;22;20414;-82
2022/08/04 05:13:36;;;;;;;11.47;10.27;;;22.00;1.00;;;;;;6316245;22;20800;-80
2022/08/04 05:16:18;;;;;;;11.40;10.50;;;22.10;1.00;;;;;;6315661;22;20425;-79
2022/08/04 05:18:49;;;;;;;11.27;10.27;;;22.10;1.00;;;;;;6300089;22;20432;-81
2022/08/04 05:21:29;;;;;;;11.93;10.93;;;22.20;1.00;;;;;;6308965;22;20449;-78
2022/08/04 05:24:03;;;;;;;12.27;10.90;;;22.20;1.00;;;;;;6314915;22;20386;-80
2022/08/04 05:26:36;;;;;;;16.63;13.50;;;22.30;1.00;;;;;;6282363;22;20421;-79
2022/08/04 05:29:07;;;;;;;20.07;13.20;;;22.40;1.00;;;;;;6313976;22;20481;-80
2022/08/04 05:31:42;;;;;;;11.83;10.93;;;22.50;1.00;;;;;;6288250;22;20392;-83
2022/08/04 05:34:23;;;;;;;12.23;11.10;;;22.50;1.00;;;;;;6318590;22;20390;-87
2022/08/04 05:36:56;;;;;;;12.83;11.83;;;22.60;1.00;;;;;;6322161;22;20500;-83
2022/08/04 05:39:25;;;;;;;12.10;11.23;;;22.70;1.00;;;;;;6319126;22;20431;-79
2022/08/04 05:41:57;;;;;;;12.13;11.00;;;22.70;1.00;;;;;;6274354;22;20443;-82
2022/08/04 05:44:25;;;;;;;12.57;11.43;;;22.80;1.00;;;;;;6322496;22;20460;-83
2022/08/04 05:46:59;;;;;;;12.27;11.27;;;22.90;1.00;;;;;;6320723;22;20406;-83
2022/08/04 05:49:29;;;;;;;13.33;12.23;;;23.00;1.00;;;;;;6297847;22;20395;-82
2022/08/04 05:51:59;;;;;;;11.67;10.87;;;23.10;1.00;;;;;;6320381;22;20404;-83
2022/08/04 05:54:27;;;;;;;14.53;13.03;;;23.20;1.00;;;;;;6310511;22;20414;-83
2022/08/04 05:56:58;;;;;;;13.70;12.53;;;23.40;1.00;;;;;;6323229;22;20402;-79
2022/08/04 05:59:25;;;;;;;13.20;12.10;;;23.40;1.00;;;;;;6320108;22;20420;-82
2022/08/04 06:02:00;;;;;;;10.97;10.07;;;23.50;1.00;;;;;;6316844;22;20442;-82
2022/08/04 06:04:39;;;;;;;12.17;11.13;;;23.70;1.00;;;;;;6318547;22;20382;-82
2022/08/04 06:07:06;;;;;;;12.30;11.33;;;23.70;1.00;;;;;;6277903;22;20476;-81
2022/08/04 06:09:36;;;;;;;15.13;13.63;;;23.90;1.00;;;;;;6310050;22;20408;-81
2022/08/04 06:12:07;;;;;;;13.13;11.87;;;24.00;1.00;;;;;;6290084;22;20472;-80
2022/08/04 06:14:41;;;;;;;12.63;11.43;;;24.00;1.00;;;;;;6308535;22;20449;-80
2022/08/04 06:17:16;;;;;;;16.10;10.73;;;24.20;1.00;;;;;;6305503;22;20453;-80
2022/08/04 06:19:44;;;;;;;14.40;12.20;;;24.30;1.00;;;;;;6322691;22;20852;-77
2022/08/04 06:22:17;;;;;;;11.70;10.80;;;24.40;1.00;;;;;;6306672;22;20445;-82
2022/08/04 06:24:46;;;;;;;12.50;11.60;;;24.40;1.00;;;;;;6324287;22;20493;-83
2022/08/04 06:27:18;;;;;;;12.20;11.20;;;24.50;1.00;;;;;;6278265;22;20390;-81
2022/08/04 06:29:48;;;;;;;12.80;11.40;;;24.70;1.00;;;;;;6311076;22;20521;-82
2022/08/04 06:32:26;;;;;;;12.40;11.20;;;24.70;1.00;;;;;;6277120;22;20384;-82
2022/08/04 06:35:00;;;;;;;11.60;10.33;;;24.90;1.00;;;;;;6318957;22;20378;-78
2022/08/04 06:37:28;;;;;;;11.80;10.67;;;25.00;1.00;;;;;;6303397;22;20471;-81
2022/08/04 06:39:56;;;;;;;11.30;10.30;;;25.10;1.00;;;;;;6317140;22;20444;-80
2022/08/04 06:42:27;;;;;;;11.90;11.00;;;25.20;1.00;;;;;;6321629;22;20390;-81
2022/08/04 06:44:59;;;;;;;12.83;11.60;;;25.30;1.00;;;;;;6293945;22;20558;-81
2022/08/04 06:47:28;;;;;;;12.93;11.67;;;25.50;1.00;;;;;;6310508;22;20418;-82
2022/08/04 06:49:57;;;;;;;11.23;10.10;;;25.80;1.00;;;;;;6304210;22;20402;-79
2022/08/04 06:52:27;;;;;;;11.07;9.97;;;25.90;1.00;;;;;;6319114;22;20370;-78
2022/08/04 06:54:56;;;;;;;11.20;9.33;;;26.00;1.00;;;;;;6313111;22;20841;-78
2022/08/04 06:57:29;;;;;;;15.37;10.47;;;26.10;1.00;;;;;;6265859;22;20451;-79
2022/08/04 07:00:03;;;;;;;11.10;10.20;;;26.30;1.00;;;;;;6282923;22;20491;-83
2022/08/04 07:02:38;;;;;;;11.00;10.03;;;26.40;1.00;;;;;;6281683;22;20476;-82
2022/08/04 07:05:08;;;;;;;10.63;9.80;;;26.50;1.00;;;;;;6309581;22;20396;-82
2022/08/04 07:07:40;;;;;;;10.17;9.33;;;26.60;1.00;;;;;;6326961;22;20382;-82
2022/08/04 07:10:08;;;;;;;9.20;8.57;;;26.70;1.00;;;;;;6273038;22;20423;-80
2022/08/04 07:12:38;;;;;;;8.20;7.50;;;26.80;1.00;;;;;;6297477;22;20815;-82
2022/08/04 07:15:13;;;;;;;8.23;7.63;;;26.90;1.00;;;;;;6313701;22;20415;-81
2022/08/04 07:17:46;;;;;;;11.33;10.23;;;27.10;1.00;;;;;;6279301;22;20426;-78
2022/08/04 07:20:18;;;;;;;9.40;8.53;;;27.20;1.00;;;;;;6301460;22;21865;-81
2022/08/04 07:22:47;;;;;;;8.43;7.83;;;27.30;1.00;;;;;;6326348;22;20494;-82
2022/08/04 07:25:17;;;;;;;8.80;8.10;;;27.50;1.00;;;;;;6278794;22;20401;-82
2022/08/04 07:27:44;;;;;;;9.87;8.70;;;27.60;1.00;;;;;;6275340;22;20437;-81
2022/08/04 07:30:17;;;;;;;9.43;8.50;;;27.70;1.00;;;;;;6315569;22;20500;-80
2022/08/04 07:32:46;;;;;;;8.63;7.57;;;27.80;1.00;;;;;;6320404;22;20410;-81
2022/08/04 07:35:19;;;;;;;8.53;7.67;;;27.90;1.00;;;;;;6317324;22;21248;-80
2022/08/04 07:37:46;;;;;;;11.07;8.77;;;28.00;1.00;;;;;;6316694;22;20437;-82
2022/08/04 07:40:17;;;;;;;9.53;8.00;;;28.20;1.00;;;;;;6316126;22;20458;-82
2022/08/04 07:42:45;;;;;;;7.63;6.80;;;28.20;1.00;;;;;;6321139;22;20934;-81
2022/08/04 07:45:17;;;;;;;8.97;7.83;;;28.40;1.00;;;;;;6277046;22;20821;-81
2022/08/04 07:47:46;;;;;;;8.57;7.83;;;28.50;1.00;;;;;;6314021;22;20422;-81
2022/08/04 07:50:19;;;;;;;9.50;8.07;;;28.70;1.00;;;;;;6304271;22;20398;-81
2022/08/04 07:52:47;;;;;;;7.63;6.93;;;28.90;1.00;;;;;;6293190;22;20430;-80
2022/08/04 07:55:16;;;;;;;6.53;6.03;;;29.00;1.00;;;;;;6296953;22;20496;-81
2022/08/04 07:57:43;;;;;;;7.57;6.77;;;29.10;1.00;;;;;;6314003;22;20382;-80
2022/08/04 08:00:13;;;;;;;8.33;7.47;;;29.20;1.00;;;;;;6299399;22;20896;-81
2022/08/04 08:02:41;;;;;;;8.17;7.50;;;29.40;1.00;;;;;;6315314;22;20509;-82
2022/08/04 08:05:11;;;;;;;12.30;7.70;;;29.50;1.00;;;;;;6314281;22;20418;-81
2022/08/04 08:07:38;;;;;;;12.67;7.50;;;29.70;1.00;;;;;;6321218;22;20980;-81
2022/08/04 08:10:13;;;;;;;8.87;8.07;;;29.90;1.00;;;;;;6320782;22;20422;-80
2022/08/04 08:12:45;;;;;;;8.17;7.40;;;30.10;1.00;;;;;;6320678;22;20488;-81
2022/08/04 08:15:13;;;;;;;7.27;6.67;;;30.20;1.00;;;;;;6322143;22;20422;-82
2022/08/04 08:20:45;;;;;;;8.90;7.10;;;30.40;1.00;;;;;;6319802;22;20448;-82
2022/08/04 08:23:13;;;;;;;13.40;8.67;;;30.60;1.00;;;;;;6320844;22;20409;-81
2022/08/04 08:25:45;;;;;;;13.63;7.70;;;30.70;1.00;;;;;;6322600;22;20426;-81
2022/08/04 08:28:14;;;;;;;6.90;6.30;;;30.90;1.00;;;;;;6299185;22;20497;-80
2022/08/04 08:30:46;;;;;;;7.80;7.00;;;30.90;1.00;;;;;;6321254;22;20434;-81
2022/08/04 08:33:15;;;;;;;8.20;6.50;;;31.10;1.00;;;;;;6299616;22;20418;-77
2022/08/04 08:35:55;;;;;;;9.93;6.57;;;31.10;1.00;;;;;;6302565;22;20430;-83
2022/08/04 08:38:37;;;;;;;9.70;6.73;;;31.30;1.00;;;;;;6321665;22;20522;-82
2022/08/04 08:41:28;;;;;;;8.23;7.43;;;31.50;1.00;;;;;;6319513;22;20402;-82
2022/08/04 08:44:13;;;;;;;9.57;6.30;;;31.70;1.00;;;;;;6319277;22;20497;-79
2022/08/04 08:47:06;;;;;;;6.53;5.83;;;31.80;1.00;;;;;;6319881;22;20414;-83
2022/08/04 08:50:16;;;;;;;7.57;6.83;;;31.90;1.00;;;;;;6322997;22;20432;-82
2022/08/04 08:53:27;;;;;;;6.80;6.30;;;32.00;1.00;;;;;;6321047;22;20386;-80
2022/08/04 08:56:13;;;;;;;12.63;6.67;;;32.20;1.00;;;;;;6321737;22;20437;-82
2022/08/04 08:59:06;;;;;;;6.63;6.13;;;32.40;1.00;;;;;;6319533;22;20481;-79
2022/08/04 09:01:49;;;;;;;8.10;6.20;;;32.40;1.00;;;;;;6321653;22;20464;-82
2022/08/04 09:04:53;;;;;;;11.90;6.20;;;32.60;1.00;;;;;;6324181;22;21189;-81
2022/08/04 09:07:53;;;;;;;7.07;5.23;;;32.70;1.00;;;;;;6322757;22;20428;-81
2022/08/04 09:10:31;;;;;;;4.17;3.87;;;32.90;1.00;;;;;;6319312;22;20379;-81
2022/08/04 09:13:07;;;;;;;5.10;4.70;;;33.00;1.00;;;;;;6323714;22;20418;-81
2022/08/04 09:15:39;;;;;;;6.73;5.63;;;33.10;1.00;;;;;;6322543;22;20441;-80
2022/08/04 09:18:27;;;;;;;5.90;5.23;;;33.10;1.00;;;;;;6322321;22;20397;-83
2022/08/04 09:21:00;;;;;;;5.20;4.80;;;33.20;1.00;;;;;;6325602;22;20416;-79
2022/08/04 09:23:40;;;;;;;4.93;4.53;;;33.40;1.00;;;;;;6320425;22;20398;-80
2022/08/04 09:26:20;;;;;;;4.60;4.23;;;33.50;1.00;;;;;;6317864;22;20410;-77
2022/08/04 09:28:53;;;;;;;4.80;4.40;;;33.70;1.00;;;;;;6320358;22;20604;-78
2022/08/04 09:31:32;;;;;;;6.20;4.60;;;33.90;1.00;;;;;;6319676;22;20446;-77
2022/08/04 09:34:09;;;;;;;4.97;4.60;;;34.10;1.00;;;;;;6318337;22;20382;-82
2022/08/04 09:36:44;;;;;;;8.87;4.80;;;35.00;1.00;;;;;;6320568;22;20425;-82
2022/08/04 09:39:27;;;;;;;5.40;5.00;;;36.50;1.00;;;;;;6317824;22;20399;-81
2022/08/04 09:42:09;;;;;;;8.23;5.07;;;37.90;1.00;;;;;;6324379;22;20492;-82
2022/08/04 09:44:55;;;;;;;5.93;5.10;;;39.50;1.00;;;;;;6322700;22;20521;-81
2022/08/04 09:47:32;;;;;;;5.20;4.80;;;41.00;1.00;;;;;;6320520;22;20496;-82
2022/08/04 09:50:14;;;;;;;6.30;5.43;;;42.00;1.00;;;;;;6322661;22;20465;-82
2022/08/04 09:52:52;;;;;;;6.00;5.40;;;42.90;1.00;;;;;;6322357;22;20489;-83
2022/08/04 09:55:35;;;;;;;5.07;4.80;;;43.70;1.00;;;;;;6323047;22;21143;-83
2022/08/04 09:58:11;;;;;;;4.20;3.90;;;44.10;1.00;;;;;;6318947;22;20507;-79
2022/08/04 10:00:53;;;;;;;3.67;3.37;;;44.10;1.00;;;;;;6317566;22;20386;-78
2022/08/04 10:03:32;;;;;;;4.73;4.33;;;44.60;1.00;;;;;;6318821;22;20919;-79
2022/08/04 10:06:15;;;;;;;7.67;4.30;;;45.00;1.00;;;;;;6320485;22;20505;-80
2022/08/04 10:09:03;;;;;;;3.93;3.60;;;44.60;1.00;;;;;;6321661;22;20402;-83
2022/08/04 10:11:47;;;;;;;4.30;3.90;;;45.30;1.00;;;;;;6322413;22;20417;-82
2022/08/04 10:14:29;;;;;;;4.57;4.13;;;45.90;1.00;;;;;;6326655;22;20410;-81
2022/08/04 10:17:07;;;;;;;4.63;4.23;;;46.00;1.00;;;;;;6323067;22;20552;-82
2022/08/04 10:19:38;;;;;;;4.30;3.90;;;46.10;1.00;;;;;;6286160;22;20682;-82
2022/08/04 10:22:17;;;;;;;4.03;3.77;;;46.00;1.00;;;;;;6318629;22;20417;-83
2022/08/04 10:25:06;;;;;;;4.27;3.97;;;46.10;1.00;;;;;;6323378;22;20425;-82
2022/08/04 10:27:38;;;;;;;4.30;4.00;;;46.00;1.00;;;;;;6322057;22;20488;-78
2022/08/04 10:30:11;;;;;;;3.90;3.60;;;46.00;1.00;;;;;;6320941;22;20375;-78
2022/08/04 10:32:50;;;;;;;4.87;3.50;;;46.70;1.00;;;;;;6322751;22;20406;-82
2022/08/04 10:35:26;;;;;;;3.63;3.33;;;46.60;1.00;;;;;;6318172;22;20406;-82
2022/08/04 10:38:06;;;;;;;3.47;3.27;;;46.70;1.00;;;;;;6323153;22;20485;-78
2022/08/04 10:40:48;;;;;;;4.47;4.10;;;47.20;1.00;;;;;;6298498;22;20417;-78
2022/08/04 10:43:27;;;;;;;3.93;3.50;;;47.50;1.00;;;;;;6293343;22;20462;-77
2022/08/04 10:45:59;;;;;;;3.70;3.50;;;47.40;1.00;;;;;;6317449;22;20449;-81
2022/08/04 10:48:36;;;;;;;4.10;3.80;;;47.70;1.00;;;;;;6326556;22;20366;-83
2022/08/04 10:51:15;;;;;;;4.03;3.10;;;48.20;1.00;;;;;;6323062;22;20445;-83
2022/08/04 10:53:50;;;;;;;4.30;3.33;;;47.80;1.00;;;;;;6321834;22;20980;-82
2022/08/04 10:56:31;;;;;;;3.20;3.00;;;47.70;1.00;;;;;;6321836;22;20421;-81
2022/08/04 10:59:08;;;;;;;4.33;3.03;;;47.50;1.00;;;;;;6321117;22;20453;-81
2022/08/04 11:01:40;;;;;;;3.87;3.57;;;47.20;1.00;;;;;;6324305;22;20430;-81
2022/08/04 11:04:16;;;;;;;4.17;3.87;;;47.60;1.00;;;;;;6323752;22;20378;-81
2022/08/04 11:06:48;;;;;;;6.40;3.90;;;47.90;1.00;;;;;;6298044;22;20403;-82
2022/08/04 11:09:18;;;;;;;3.90;3.50;;;48.50;1.00;;;;;;6321611;22;20795;-82
2022/08/04 11:11:53;;;;;;;4.43;3.00;;;49.00;1.00;;;;;;6322270;22;20382;-78
2022/08/04 11:14:26;;;;;;;3.70;3.10;;;49.00;1.00;;;;;;6322163;22;20420;-79
2022/08/04 11:17:00;;;;;;;3.33;3.03;;;48.90;1.00;;;;;;6320273;22;20433;-78
2022/08/04 11:19:34;;;;;;;3.37;3.17;;;48.50;1.00;;;;;;6319219;22;20398;-78
2022/08/04 11:22:09;;;;;;;3.47;3.17;;;48.10;1.00;;;;;;6320263;22;20905;-82
2022/08/04 11:24:49;;;;;;;6.90;3.63;;;48.10;1.00;;;;;;6321938;22;20765;-82
2022/08/04 11:27:27;;;;;;;3.63;3.27;;;48.30;1.00;;;;;;6318866;22;20425;-81
2022/08/04 11:30:03;;;;;;;2.97;2.83;;;48.70;1.00;;;;;;6314728;22;20429;-82
2022/08/04 11:32:43;;;;;;;4.07;3.30;;;49.20;1.00;;;;;;6295009;22;21010;-82
2022/08/04 11:35:20;;;;;;;3.80;2.87;;;49.80;1.00;;;;;;6298544;22;20386;-82
2022/08/04 11:38:01;;;;;;;3.50;3.30;;;50.40;1.00;;;;;;6316876;22;20505;-81
2022/08/04 11:40:36;;;;;;;3.23;3.03;;;50.30;1.00;;;;;;6314452;22;20424;-81
2022/08/04 11:43:20;;;;;;;3.40;3.17;;;50.00;1.00;;;;;;6317089;22;20425;-82
2022/08/04 11:45:59;;;;;;;3.77;3.47;;;49.80;1.00;;;;;;6271694;22;20419;-81
2022/08/04 11:48:36;;;;;;;4.63;4.33;;;49.20;1.00;;;;;;6275380;22;20435;-84
2022/08/04 11:51:05;;;;;;;3.07;2.63;;;49.60;1.00;;;;;;6287758;22;20498;-81
2022/08/04 11:53:43;;;;;;;4.63;3.13;;;49.10;1.00;;;;;;6276243;22;20849;-80
2022/08/04 11:59:02;;;;;;;3.50;3.20;;;48.40;1.00;;;;;;6314494;22;21203;-78
2022/08/04 12:01:49;;;;;;;4.47;3.27;;;48.30;1.00;;;;;;6321517;22;20417;-83
2022/08/04 12:04:27;;;;;;;4.50;3.17;;;48.40;1.00;;;;;;6288406;22;20641;-83
2022/08/04 12:07:02;;;;;;;3.23;3.00;;;48.10;1.00;;;;;;6282714;22;20480;-83
2022/08/04 12:09:39;;;;;;;3.30;3.10;;;48.30;1.00;;;;;;6318311;22;20418;-84
2022/08/04 12:12:21;;;;;;;3.43;3.23;;;47.80;1.00;;;;;;6263166;22;20423;-78
2022/08/04 12:15:09;;;;;;;2.87;2.67;;;47.00;1.00;;;;;;6264235;22;20528;-77
2022/08/04 12:17:50;;;;;;;3.90;3.70;;;46.30;1.00;;;;;;6315547;22;20918;-79
2022/08/04 12:20:23;;;;;;;4.00;3.57;;;46.30;1.00;;;;;;6315380;22;20416;-77
2022/08/04 12:22:54;;;;;;;3.77;3.47;;;46.70;1.00;;;;;;6317117;22;20794;-78
2022/08/04 12:25:30;;;;;;;3.00;2.80;;;47.30;1.00;;;;;;6273192;22;20426;-78
2022/08/04 12:28:06;;;;;;;4.97;3.07;;;48.10;1.00;;;;;;6316737;22;20410;-79
2022/08/04 12:33:24;;;;;;;3.03;2.63;;;47.50;1.00;;;;;;6314140;22;20986;-78
2022/08/04 12:36:01;;;;;;;3.13;2.93;;;47.70;1.00;;;;;;6315742;22;20433;-76
2022/08/04 12:38:52;;;;;;;3.47;3.27;;;48.10;1.00;;;;;;6315124;22;20403;-77
2022/08/04 12:41:30;;;;;;;6.50;2.97;;;48.50;1.00;;;;;;6285079;22;21316;-82
2022/08/04 12:44:10;;;;;;;4.47;3.60;;;48.40;1.00;;;;;;6286785;22;20449;-82
2022/08/04 12:46:41;;;;;;;4.40;2.90;;;48.80;1.00;;;;;;6300564;22;20438;-82
2022/08/04 12:49:14;;;;;;;3.03;2.80;;;48.10;1.00;;;;;;6286387;22;20411;-80
2022/08/04 12:51:56;;;;;;;5.53;2.97;;;48.00;1.00;;;;;;6271797;22;20407;-80
2022/08/04 12:54:26;;;;;;;6.80;3.50;;;48.00;1.00;;;;;;6268937;22;20922;-80
2022/08/04 12:57:01;;;;;;;6.17;3.20;;;47.20;1.00;;;;;;6319967;22;20464;-82
2022/08/04 12:59:28;;;;;;;3.50;3.20;;;47.20;1.00;;;;;;6286590;22;21009;-78
2022/08/04 13:02:00;;;;;;;3.33;3.10;;;47.10;1.00;;;;;;6276179;22;20386;-82
2022/08/04 13:04:28;;;;;;;3.87;3.07;;;46.80;1.00;;;;;;6320969;22;20457;-83
2022/08/04 13:07:05;;;;;;;3.23;2.93;;;47.20;1.00;;;;;;6305967;22;20406;-79
2022/08/04 13:09:38;;;;;;;2.90;2.70;;;47.90;1.00;;;;;;6294907;22;20538;-76
2022/08/04 13:12:19;;;;;;;3.40;3.03;;;48.40;1.00;;;;;;6281457;22;20397;-82
2022/08/04 13:14:50;;;;;;;4.03;3.03;;;47.50;1.00;;;;;;6305085;22;20402;-81
2022/08/04 13:17:19;;;;;;;3.63;3.20;;;47.20;1.00;;;;;;6317456;22;20520;-78
2022/08/04 13:19:49;;;;;;;3.20;2.93;;;47.10;1.00;;;;;;6315858;22;20418;-79
2022/08/04 13:22:26;;;;;;;4.60;3.20;;;47.40;1.00;;;;;;6306422;22;20377;-82
2022/08/04 13:25:00;;;;;;;6.10;5.40;;;47.00;1.00;;;;;;6305181;22;20801;-82
2022/08/04 13:27:28;;;;;;;7.97;3.67;;;45.80;1.00;;;;;;6304495;22;20422;-80
2022/08/04 13:30:00;;;;;;;3.30;3.10;;;45.50;1.00;;;;;;6308313;22;20434;-83
2022/08/04 13:32:30;;;;;;;3.40;3.10;;;46.10;1.00;;;;;;6300575;22;20418;-81
2022/08/04 13:35:02;;;;;;;2.97;2.70;;;46.60;1.00;;;;;;6278522;22;20507;-78
2022/08/04 13:37:39;;;;;;;4.40;2.60;;;46.30;1.00;;;;;;6272238;22;20431;-82
2022/08/04 13:40:13;;;;;;;19.40;4.80;;;46.10;1.00;;;;;;6259060;22;21025;-78
2022/08/04 13:42:49;;;;;;;4.47;2.90;;;45.30;1.00;;;;;;6284314;22;20398;-81
2022/08/04 13:45:21;;;;;;;3.37;3.07;;;44.60;1.00;;;;;;6286688;22;20441;-82
2022/08/04 13:47:51;;;;;;;3.30;3.00;;;44.50;1.00;;;;;;6289247;22;20454;-81
2022/08/04 13:50:26;;;;;;;3.07;2.87;;;44.50;1.00;;;;;;6260262;22;20419;-83
2022/08/04 13:52:56;;;;;;;3.37;2.70;;;45.30;1.00;;;;;;6287161;22;20464;-82
2022/08/04 13:55:26;;;;;;;6.23;3.27;;;46.00;1.00;;;;;;6278570;22;20418;-81
2022/08/04 13:58:02;;;;;;;3.50;3.00;;;46.90;1.00;;;;;;6271698;22;20455;-81
2022/08/04 14:00:42;;;;;;;5.27;3.00;;;47.80;1.00;;;;;;6237357;22;20506;-82
2022/08/04 14:03:20;;;;;;;2.40;2.20;;;48.40;1.00;;;;;;6255341;22;20457;-82